Time;durP1;ratioP1;P1;durP2;ratioP2;P2;SDS_P1;SDS_P2;PMS_P1;PMS_P2;Temp;Humidity;BMP_temperature;BMP_pressure;BME280_temperature;BME280_humidity;BME280_pressure;Samples;Min_cycle;Max_cycle;Signal;HPM_P1;HPM_P2
2021/03/10 00:01:20;;;;;;;46.83;28.27;;;;;;;;;;5017416;28;20255;-73
2021/03/10 00:03:46;;;;;;;43.00;27.97;;;;;;;;;;5033660;28;20185;-73
2021/03/10 00:06:12;;;;;;;43.60;27.67;;;;;;;;;;5034443;28;20238;-72
2021/03/10 00:08:38;;;;;;;43.57;25.87;;;;;;;;;;5033589;28;20227;-73
2021/03/10 00:11:03;;;;;;;42.87;26.87;;;;;;;;;;5033546;28;20234;-72
2021/03/10 00:13:29;;;;;;;48.27;28.40;;;;;;;;;;5033476;28;20180;-72
2021/03/10 00:15:55;;;;;;;41.77;25.10;;;;;;;;;;5033287;28;20174;-73
2021/03/10 00:18:21;;;;;;;43.90;27.77;;;;;;;;;;5034282;28;20211;-73
2021/03/10 00:20:47;;;;;;;38.53;24.93;;;;;;;;;;5034644;28;20182;-72
2021/03/10 00:23:13;;;;;;;45.07;26.50;;;;;;;;;;5033134;28;20624;-73
2021/03/10 00:25:39;;;;;;;42.27;27.10;;;;;;;;;;5034303;28;20686;-73
2021/03/10 00:28:05;;;;;;;38.27;25.20;;;;;;;;;;5034355;28;20671;-73
2021/03/10 00:30:31;;;;;;;41.67;25.50;;;;;;;;;;5034301;28;20567;-74
2021/03/10 00:32:57;;;;;;;46.67;26.83;;;;;;;;;;5034376;28;20179;-73
2021/03/10 00:35:23;;;;;;;44.67;26.40;;;;;;;;;;5032946;28;20179;-75
2021/03/10 00:37:49;;;;;;;40.67;25.97;;;;;;;;;;5034247;28;20198;-77
2021/03/10 00:40:15;;;;;;;38.33;23.83;;;;;;;;;;5034180;28;20183;-75
2021/03/10 00:42:41;;;;;;;37.97;23.93;;;;;;;;;;5032767;28;20266;-72
2021/03/10 00:45:07;;;;;;;37.63;24.97;;;;;;;;;;5016381;28;20630;-73
2021/03/10 00:47:33;;;;;;;38.53;24.67;;;;;;;;;;5032890;28;20209;-77
2021/03/10 00:49:59;;;;;;;40.10;25.17;;;;;;;;;;5016630;28;20187;-76
2021/03/10 00:52:25;;;;;;;40.23;25.70;;;;;;;;;;5033813;28;20246;-72
2021/03/10 00:54:51;;;;;;;38.20;24.63;;;;;;;;;;5032685;28;20186;-72
2021/03/10 00:57:17;;;;;;;37.57;24.83;;;;;;;;;;5032366;28;20577;-72
2021/03/10 00:59:43;;;;;;;40.70;25.33;;;;;;;;;;5032480;28;20237;-72
2021/03/10 01:02:09;;;;;;;43.73;26.90;;;;;;;;;;5016047;28;20563;-72
2021/03/10 01:04:35;;;;;;;42.37;26.17;;;;;;;;;;5033626;28;20190;-72
2021/03/10 01:07:00;;;;;;;44.33;27.07;;;;;;;;;;5032270;28;20206;-72
2021/03/10 01:09:26;;;;;;;42.33;26.47;;;;;;;;;;5032478;28;20196;-72
2021/03/10 01:11:52;;;;;;;43.67;26.40;;;;;;;;;;5032253;28;20252;-73
2021/03/10 01:14:18;;;;;;;43.40;25.73;;;;;;;;;;5032355;28;20178;-73
2021/03/10 01:16:44;;;;;;;42.47;26.07;;;;;;;;;;5033185;28;20348;-73
2021/03/10 01:19:10;;;;;;;38.97;24.40;;;;;;;;;;5033376;28;20206;-73
2021/03/10 01:21:36;;;;;;;39.43;24.20;;;;;;;;;;5033444;28;20189;-73
2021/03/10 01:24:02;;;;;;;36.43;24.27;;;;;;;;;;5032006;28;20175;-73
2021/03/10 01:26:28;;;;;;;37.17;22.73;;;;;;;;;;5015388;28;20289;-73
2021/03/10 01:28:54;;;;;;;37.63;23.77;;;;;;;;;;5033390;28;20209;-74
2021/03/10 01:31:20;;;;;;;43.57;25.90;;;;;;;;;;5033186;28;20676;-73
2021/03/10 01:33:46;;;;;;;43.60;25.37;;;;;;;;;;5015583;28;20238;-75
2021/03/10 01:36:12;;;;;;;39.10;25.50;;;;;;;;;;5031747;28;20189;-75
2021/03/10 01:38:38;;;;;;;45.20;26.13;;;;;;;;;;5015436;28;20635;-74
2021/03/10 01:41:05;;;;;;;42.60;26.80;;;;;;;;;;5031124;28;20286;-76
2021/03/10 01:43:31;;;;;;;41.50;24.67;;;;;;;;;;5015610;28;20670;-72
2021/03/10 01:45:57;;;;;;;44.10;27.07;;;;;;;;;;5032797;28;20179;-72
2021/03/10 01:48:23;;;;;;;43.57;27.47;;;;;;;;;;5031771;28;20201;-73
2021/03/10 01:50:49;;;;;;;46.03;26.50;;;;;;;;;;5031465;28;20177;-73
2021/03/10 01:53:15;;;;;;;39.53;24.27;;;;;;;;;;5031778;28;20265;-73
2021/03/10 01:55:41;;;;;;;39.93;25.27;;;;;;;;;;5014930;28;20179;-72
2021/03/10 01:58:07;;;;;;;38.23;24.77;;;;;;;;;;5015016;28;20197;-74
2021/03/10 02:00:33;;;;;;;35.80;23.10;;;;;;;;;;5031221;28;20185;-73
2021/03/10 02:02:59;;;;;;;39.00;23.73;;;;;;;;;;5031304;28;20178;-73
2021/03/10 02:05:25;;;;;;;42.00;24.83;;;;;;;;;;5031292;28;20180;-75
2021/03/10 02:07:57;;;;;;;35.77;23.17;;;;;;;;;;5015156;28;20210;-74
2021/03/10 02:10:32;;;;;;;35.70;23.47;;;;;;;;;;5032213;28;20215;-76
2021/03/10 02:12:58;;;;;;;34.97;22.70;;;;;;;;;;5031254;28;20715;-72
2021/03/10 02:15:30;;;;;;;37.97;22.23;;;;;;;;;;5030960;28;20273;-72
2021/03/10 02:18:04;;;;;;;33.67;22.57;;;;;;;;;;5032274;28;20248;-72
2021/03/10 02:20:31;;;;;;;32.13;21.80;;;;;;;;;;5031303;28;20273;-73
2021/03/10 02:23:16;;;;;;;36.53;22.80;;;;;;;;;;5031972;28;20272;-74
2021/03/10 02:26:00;;;;;;;37.10;21.80;;;;;;;;;;5032126;28;20655;-73
2021/03/10 02:28:27;;;;;;;35.53;23.23;;;;;;;;;;5032141;28;20285;-72
2021/03/10 02:30:53;;;;;;;36.53;22.23;;;;;;;;;;5030892;28;20212;-72
2021/03/10 02:33:20;;;;;;;36.33;23.17;;;;;;;;;;5030736;28;20179;-72
2021/03/10 02:35:47;;;;;;;37.70;23.83;;;;;;;;;;5014415;28;20263;-73
2021/03/10 02:38:16;;;;;;;36.70;23.90;;;;;;;;;;5030896;28;20197;-72
2021/03/10 02:40:42;;;;;;;35.90;23.37;;;;;;;;;;5031070;28;20182;-72
2021/03/10 02:43:09;;;;;;;38.60;23.53;;;;;;;;;;5024401;28;20184;-73
2021/03/10 02:45:35;;;;;;;36.97;23.00;;;;;;;;;;5050588;28;20178;-72
2021/03/10 02:48:01;;;;;;;38.23;23.93;;;;;;;;;;5050609;28;20572;-73
2021/03/10 02:50:27;;;;;;;40.10;23.70;;;;;;;;;;5033880;28;20182;-72
2021/03/10 02:52:53;;;;;;;36.50;23.67;;;;;;;;;;5033322;28;20202;-72
2021/03/10 02:55:19;;;;;;;34.90;24.20;;;;;;;;;;5048657;28;20630;-72
2021/03/10 02:57:45;;;;;;;37.47;24.03;;;;;;;;;;5030321;28;20205;-76
2021/03/10 03:00:18;;;;;;;39.30;24.50;;;;;;;;;;5030720;28;20188;-76
2021/03/10 03:02:44;;;;;;;39.50;25.13;;;;;;;;;;5031580;28;20697;-75
2021/03/10 03:05:10;;;;;;;36.97;24.10;;;;;;;;;;5030472;28;20186;-75
2021/03/10 03:07:39;;;;;;;41.40;25.80;;;;;;;;;;5031652;28;20286;-74
2021/03/10 03:10:06;;;;;;;40.87;26.30;;;;;;;;;;5030628;28;20244;-76
2021/03/10 03:12:32;;;;;;;38.30;25.30;;;;;;;;;;5030361;28;20733;-76
2021/03/10 03:14:58;;;;;;;38.97;24.53;;;;;;;;;;5030270;28;20258;-75
2021/03/10 03:17:24;;;;;;;47.33;27.73;;;;;;;;;;5030351;28;20296;-75
2021/03/10 03:19:50;;;;;;;44.40;25.97;;;;;;;;;;5031590;28;20179;-74
2021/03/10 03:22:16;;;;;;;42.93;26.67;;;;;;;;;;5030702;28;20722;-76
2021/03/10 03:24:42;;;;;;;44.20;27.30;;;;;;;;;;5013333;28;20260;-75
2021/03/10 03:27:08;;;;;;;46.97;28.47;;;;;;;;;;5031416;28;20199;-76
2021/03/10 03:29:34;;;;;;;45.13;27.17;;;;;;;;;;5013835;28;20330;-76
2021/03/10 03:32:00;;;;;;;46.73;27.57;;;;;;;;;;5013798;28;20764;-75
2021/03/10 03:34:26;;;;;;;48.57;28.70;;;;;;;;;;5030309;28;20541;-75
2021/03/10 03:36:52;;;;;;;42.93;26.90;;;;;;;;;;5030169;28;20207;-76
2021/03/10 03:39:19;;;;;;;42.73;26.40;;;;;;;;;;5030355;28;20201;-76
2021/03/10 03:41:46;;;;;;;44.07;25.43;;;;;;;;;;5030159;28;20230;-74
2021/03/10 03:44:12;;;;;;;45.93;26.77;;;;;;;;;;5030147;28;20186;-75
2021/03/10 03:46:38;;;;;;;46.70;27.20;;;;;;;;;;5031193;28;20198;-76
2021/03/10 03:49:04;;;;;;;44.90;27.07;;;;;;;;;;5030272;28;20181;-75
2021/03/10 03:51:31;;;;;;;47.00;27.17;;;;;;;;;;5029955;28;20209;-76
2021/03/10 03:54:04;;;;;;;42.03;26.80;;;;;;;;;;5030747;28;20182;-75
2021/03/10 03:56:30;;;;;;;45.70;26.73;;;;;;;;;;5029805;28;20255;-74
2021/03/10 03:58:56;;;;;;;45.17;27.07;;;;;;;;;;5030179;28;20184;-74
2021/03/10 04:01:22;;;;;;;44.00;26.47;;;;;;;;;;5031558;28;20197;-75
2021/03/10 04:03:48;;;;;;;46.47;26.37;;;;;;;;;;5033802;28;20179;-75
2021/03/10 04:06:14;;;;;;;42.83;26.80;;;;;;;;;;5016978;28;20182;-74
2021/03/10 04:08:43;;;;;;;44.10;27.23;;;;;;;;;;5033687;28;20229;-74
2021/03/10 04:11:18;;;;;;;45.43;27.30;;;;;;;;;;5033664;28;20203;-75
2021/03/10 04:13:44;;;;;;;44.87;27.40;;;;;;;;;;5033416;28;20547;-76
2021/03/10 04:16:10;;;;;;;41.37;26.47;;;;;;;;;;5033226;28;20179;-76
2021/03/10 04:18:37;;;;;;;45.03;27.23;;;;;;;;;;5033481;28;20195;-76
2021/03/10 04:21:03;;;;;;;43.83;27.03;;;;;;;;;;5033487;28;20646;-76
2021/03/10 04:23:29;;;;;;;42.97;25.50;;;;;;;;;;5034368;28;20178;-76
2021/03/10 04:25:55;;;;;;;47.43;27.13;;;;;;;;;;5034309;28;20189;-77
2021/03/10 04:28:21;;;;;;;41.53;25.57;;;;;;;;;;5034374;28;20201;-75
2021/03/10 04:30:47;;;;;;;48.60;27.20;;;;;;;;;;5034372;28;20190;-76
2021/03/10 04:33:13;;;;;;;47.77;28.20;;;;;;;;;;5033117;28;20186;-77
2021/03/10 04:35:39;;;;;;;47.93;28.03;;;;;;;;;;5034372;28;20177;-76
2021/03/10 04:38:05;;;;;;;46.10;27.77;;;;;;;;;;5032990;28;20206;-77
2021/03/10 04:40:31;;;;;;;42.47;26.43;;;;;;;;;;5033314;28;20189;-76
2021/03/10 04:42:57;;;;;;;42.37;26.87;;;;;;;;;;5032956;28;20185;-75
2021/03/10 04:45:23;;;;;;;45.00;26.93;;;;;;;;;;5034033;28;20190;-75
2021/03/10 04:47:49;;;;;;;43.63;26.13;;;;;;;;;;5034104;28;20285;-75
2021/03/10 04:50:15;;;;;;;45.00;26.47;;;;;;;;;;5034153;28;20175;-75
2021/03/10 04:52:41;;;;;;;46.93;27.23;;;;;;;;;;5033789;28;20229;-75
2021/03/10 04:55:07;;;;;;;44.97;27.77;;;;;;;;;;5032726;28;20179;-76
2021/03/10 04:57:33;;;;;;;44.50;26.87;;;;;;;;;;5032817;28;20199;-76
2021/03/10 04:59:59;;;;;;;47.03;28.03;;;;;;;;;;5032814;28;20527;-74
2021/03/10 05:02:25;;;;;;;46.73;27.93;;;;;;;;;;5033899;28;20257;-75
2021/03/10 05:04:51;;;;;;;48.30;27.53;;;;;;;;;;5032696;28;20257;-76
2021/03/10 05:07:17;;;;;;;46.17;28.57;;;;;;;;;;5016169;28;20209;-76
2021/03/10 05:09:43;;;;;;;48.83;29.27;;;;;;;;;;5032528;28;20265;-74
2021/03/10 05:12:09;;;;;;;45.60;26.63;;;;;;;;;;5032278;28;20214;-74
2021/03/10 05:14:35;;;;;;;42.77;26.80;;;;;;;;;;5015114;28;20570;-75
2021/03/10 05:17:01;;;;;;;47.10;27.20;;;;;;;;;;5062148;22;20272;-73
2021/03/10 05:19:27;;;;;;;45.17;27.43;;;;;;;;;;5055504;28;20285;-73
2021/03/10 05:21:53;;;;;;;48.93;27.80;;;;;;;;;;5066215;28;20256;-74
2021/03/10 05:24:19;;;;;;;46.73;26.83;;;;;;;;;;5072009;28;20189;-73
2021/03/10 05:26:45;;;;;;;44.20;27.23;;;;;;;;;;5073038;28;20184;-73
2021/03/10 05:29:11;;;;;;;46.77;26.93;;;;;;;;;;5072356;28;20693;-73
2021/03/10 05:31:37;;;;;;;47.00;27.27;;;;;;;;;;5072018;28;20284;-73
2021/03/10 05:34:03;;;;;;;46.00;27.13;;;;;;;;;;5073165;28;20645;-73
2021/03/10 05:36:29;;;;;;;43.70;26.40;;;;;;;;;;5072028;28;20212;-73
2021/03/10 05:38:55;;;;;;;44.23;25.70;;;;;;;;;;5073139;28;20173;-73
2021/03/10 05:41:21;;;;;;;40.73;24.90;;;;;;;;;;5071929;28;20192;-74
2021/03/10 05:43:47;;;;;;;46.30;26.87;;;;;;;;;;5072070;28;20516;-75
2021/03/10 05:46:13;;;;;;;41.60;25.23;;;;;;;;;;5071855;28;20274;-74
2021/03/10 05:48:39;;;;;;;45.07;25.90;;;;;;;;;;5073188;28;20613;-75
2021/03/10 05:51:06;;;;;;;48.50;27.47;;;;;;;;;;5054785;28;20234;-74
2021/03/10 05:53:35;;;;;;;47.43;27.83;;;3.40;99.90;;;;;;5072709;28;20189;-75
2021/03/10 05:56:01;;;;;;;47.27;27.87;;;3.50;99.90;;;;;;5055361;28;20664;-75
2021/03/10 05:58:26;;;;;;;50.83;28.67;;;3.40;99.90;;;;;;5054955;28;20196;-75
2021/03/10 06:00:52;;;;;;;44.43;27.43;;;3.40;99.90;;;;;;5071559;28;20711;-75
2021/03/10 06:03:17;;;;;;;47.63;27.50;;;3.40;99.90;;;;;;5052395;28;20605;-73
2021/03/10 06:05:43;;;;;;;48.87;27.37;;;3.40;99.90;;;;;;5037109;28;20173;-78
2021/03/10 06:08:10;;;;;;;46.17;27.87;;;3.30;99.90;;;;;;5057456;28;20233;-78
2021/03/10 06:10:39;;;;;;;49.80;28.30;;;3.50;99.90;;;;;;5044312;28;20177;-79
2021/03/10 06:13:04;;;;;;;49.37;28.83;;;3.50;99.90;;;;;;5061632;28;20256;-78
2021/03/10 06:15:40;;;;;;;52.57;29.27;;;3.50;99.90;;;;;;5064549;28;20181;-78
2021/03/10 06:18:06;;;;;;;53.73;29.07;;;3.40;99.90;;;;;;5063617;28;20223;-78
2021/03/10 06:20:32;;;;;;;52.43;29.23;;;3.50;99.90;;;;;;5065071;28;20185;-77
2021/03/10 06:22:57;;;;;;;51.37;28.97;;;3.50;99.90;;;;;;5057284;28;20217;-78
2021/03/10 06:25:23;;;;;;;53.83;30.23;;;3.60;99.90;;;;;;5057245;28;20230;-78
2021/03/10 06:27:53;;;;;;;55.30;30.47;;;3.60;99.90;;;;;;5048302;28;20206;-76
2021/03/10 06:30:32;;;;;;;52.47;28.53;;;3.60;99.90;;;;;;5047838;28;20641;-78
2021/03/10 06:32:58;;;;;;;56.17;29.70;;;3.60;99.90;;;;;;5081174;28;20193;-78
2021/03/10 06:35:28;;;;;;;56.13;30.87;;;3.70;99.90;;;;;;5058421;28;20255;-78
2021/03/10 06:38:05;;;;;;;56.80;31.90;;;3.70;99.90;;;;;;5042449;28;20225;-78
2021/03/10 06:40:31;;;;;;;58.17;32.77;;;3.70;99.90;;;;;;5050342;28;20565;-77
2021/03/10 06:42:57;;;;;;;61.63;32.97;;;;;;;;;;5053693;28;20189;-77
2021/03/10 06:45:30;;;;;;;59.60;31.23;;;;;;;;;;5067093;28;20181;-76
2021/03/10 06:47:56;;;;;;;61.00;32.00;;;;;;;;;;5067939;28;20284;-76
2021/03/10 06:50:22;;;;;;;60.83;32.97;;;;;;;;;;5051453;28;20546;-76
2021/03/10 06:52:51;;;;;;;57.10;31.80;;;;;;;;;;5046582;28;20215;-74
2021/03/10 06:55:18;;;;;;;57.10;31.23;;;;;;;;;;5053869;28;20198;-75
2021/03/10 06:57:44;;;;;;;55.97;31.90;;;;;;;;;;5053339;28;20287;-75
2021/03/10 07:00:23;;;;;;;56.67;32.07;;;4.30;99.90;;;;;;5052986;28;20189;-75
2021/03/10 07:02:49;;;;;;;56.17;29.97;;;4.20;99.90;;;;;;5035985;28;20188;-75
2021/03/10 07:05:14;;;;;;;58.23;30.73;;;4.30;99.90;;;;;;5069899;28;20259;-74
2021/03/10 07:07:40;;;;;;;56.53;29.70;;;4.30;99.90;;;;;;5067313;28;20276;-75
2021/03/10 07:10:06;;;;;;;55.90;30.83;;;4.30;99.90;;;;;;5084650;28;20214;-78
2021/03/10 07:12:32;;;;;;;59.70;30.43;;;4.40;99.90;;;;;;5031520;28;20786;-75
2021/03/10 07:15:00;;;;;;;58.23;30.07;;;4.40;99.90;;;;;;5033594;28;20721;-75
2021/03/10 07:17:26;;;;;;;60.13;31.83;;;4.40;99.90;;;;;;5050125;28;20213;-75
2021/03/10 07:19:51;;;;;;;60.03;32.47;;;4.30;99.90;;;;;;5048853;28;20173;-75
2021/03/10 07:22:44;;;;;;;64.33;31.80;;;4.40;99.90;;;;;;5035371;28;20564;-77
2021/03/10 07:25:13;;;;;;;59.87;31.23;;;4.50;99.90;;;;;;5044302;28;20188;-76
2021/03/10 07:27:44;;;;;;;59.13;31.17;;;4.40;99.90;;;;;;5047866;28;20198;-75
2021/03/10 07:30:10;;;;;;;62.03;30.93;;;4.60;99.90;;;;;;5052562;28;20204;-76
2021/03/10 07:32:35;;;;;;;59.67;30.40;;;4.60;99.90;;;;;;5052618;28;20240;-78
2021/03/10 07:35:08;;;;;;;65.70;33.93;;;4.60;99.90;;;;;;5036209;28;20172;-76
2021/03/10 07:37:35;;;;;;;63.97;33.07;;;4.60;99.90;;;;;;5033967;28;20201;-77
2021/03/10 07:40:14;;;;;;;64.63;33.33;;;4.60;99.90;;;;;;5037638;28;20178;-74
2021/03/10 07:42:53;;;;;;;61.40;33.23;;;4.60;99.90;;;;;;5021884;28;20421;-75
2021/03/10 07:45:22;;;;;;;65.40;33.43;;;4.50;99.90;;;;;;5053947;28;20261;-77
2021/03/10 07:47:51;;;;;;;64.77;31.73;;;4.60;99.90;;;;;;5056789;28;20254;-81
2021/03/10 07:50:17;;;;;;;67.20;33.67;;;5.40;99.90;;;;;;5074242;28;20726;-73
2021/03/10 07:52:55;;;;;;;60.67;31.47;;;4.70;99.90;;;;;;5060811;28;20205;-75
2021/03/10 07:55:21;;;;;;;59.60;31.50;;;;;;;;;;5042877;28;20200;-76
2021/03/10 07:57:53;;;;;;;61.63;32.07;;;;;;;;;;5054809;28;20201;-75
2021/03/10 08:00:19;;;;;;;52.70;30.27;;;;;;;;;;5072723;28;20186;-76
2021/03/10 08:02:50;;;;;;;59.03;31.40;;;;;;;;;;5065284;28;20193;-75
2021/03/10 08:05:26;;;;;;;59.63;30.97;;;;;;;;;;5075019;28;20157;-76
2021/03/10 08:08:11;;;;;;;60.47;31.60;;;;;;;;;;5056973;28;20204;-75
2021/03/10 08:10:37;;;;;;;65.40;31.87;;;;;;;;;;5057009;28;20258;-75
2021/03/10 08:13:21;;;;;;;56.77;30.87;;;5.30;99.90;;;;;;5073220;28;20213;-74
2021/03/10 08:15:47;;;;;;;53.37;29.53;;;5.40;99.90;;;;;;5037280;28;20167;-75
2021/03/10 08:18:13;;;;;;;52.77;29.03;;;5.30;99.90;;;;;;5053489;28;20216;-74
2021/03/10 08:20:39;;;;;;;53.73;29.10;;;;;;;;;;5036863;28;20196;-75
2021/03/10 08:23:07;;;;;;;50.67;28.63;;;;;;;;;;5053016;28;20569;-74
2021/03/10 08:25:34;;;;;;;54.00;28.03;;;;;;;;;;5055305;28;20760;-75
2021/03/10 08:28:09;;;;;;;53.20;29.37;;;;;;;;;;5056723;28;20197;-75
2021/03/10 08:30:35;;;;;;;49.60;27.90;;;;;;;;;;5056598;28;20242;-76
2021/03/10 08:33:07;;;;;;;44.97;26.07;;;;;;;;;;5073295;28;20211;-74
2021/03/10 08:35:33;;;;;;;50.40;27.50;;;;;;;;;;5073578;28;20181;-74
2021/03/10 08:38:02;;;;;;;47.13;27.70;;;;;;;;;;5073254;28;20216;-74
2021/03/10 08:40:29;;;;;;;50.03;27.50;;;;;;;;;;5072740;28;20181;-75
2021/03/10 08:42:58;;;;;;;49.40;28.37;;;;;;;;;;5068224;28;20264;-75
2021/03/10 08:45:24;;;;;;;46.47;27.07;;;;;;;;;;5065210;28;20626;-75
2021/03/10 08:48:06;;;;;;;45.70;26.07;;;;;;;;;;5074227;28;20230;-75
2021/03/10 08:50:33;;;;;;;49.30;27.77;;;;;;;;;;5071470;28;20205;-75
2021/03/10 08:52:59;;;;;;;45.67;26.70;;;;;;;;;;5056134;28;20588;-76
2021/03/10 08:55:26;;;;;;;43.73;26.67;;;;;;;;;;5073023;28;20261;-75
2021/03/10 08:57:55;;;;;;;45.60;26.63;;;;;;;;;;5072768;28;20193;-75
2021/03/10 09:00:23;;;;;;;43.83;26.07;;;;;;;;;;5074113;28;20173;-74
2021/03/10 09:02:50;;;;;;;44.67;25.83;;;;;;;;;;5056448;28;20213;-75
2021/03/10 09:05:16;;;;;;;42.10;24.63;;;;;;;;;;5056493;28;20719;-75
2021/03/10 09:07:42;;;;;;;50.70;26.73;;;;;;;;;;5055695;28;20212;-75
2021/03/10 09:10:09;;;;;;;47.93;26.80;;;;;;;;;;5071195;28;20198;-75
2021/03/10 09:12:35;;;;;;;46.57;26.10;;;;;;;;;;5051606;28;20624;-75
2021/03/10 09:15:01;;;;;;;43.07;25.53;;;;;;;;;;5065399;28;20223;-75
2021/03/10 09:17:31;;;;;;;47.23;27.37;;;;;;;;;;5071871;28;20241;-75
2021/03/10 09:19:59;;;;;;;48.33;27.03;;;;;;;;;;5072385;28;20268;-75
2021/03/10 09:22:25;;;;;;;44.60;25.63;;;;;;;;;;5055160;28;20178;-75
2021/03/10 09:24:58;;;;;;;47.00;26.40;;;;;;;;;;5073711;28;20174;-75
2021/03/10 09:27:25;;;;;;;44.93;26.53;;;;;;;;;;5071682;28;20689;-76
2021/03/10 09:29:51;;;;;;;46.53;26.27;;;;;;;;;;5072218;28;20173;-74
2021/03/10 09:32:17;;;;;;;40.47;24.30;;;;;;;;;;5071860;28;20211;-74
2021/03/10 09:34:47;;;;;;;39.30;22.50;;;;;;;;;;5055583;28;20272;-74
2021/03/10 09:37:14;;;;;;;42.50;24.33;;;;;;;;;;5071996;28;20255;-73
2021/03/10 09:39:50;;;;;;;41.07;23.13;;;;;;;;;;5072255;28;20170;-73
2021/03/10 09:42:16;;;;;;;42.83;24.50;;;;;;;;;;5071722;28;20181;-72
2021/03/10 09:44:46;;;;;;;44.07;23.60;;;;;;;;;;5071861;28;20232;-72
2021/03/10 09:47:13;;;;;;;36.67;23.60;;;;;;;;;;5071700;28;20202;-75
2021/03/10 09:49:52;;;;;;;40.03;23.73;;;;;;;;;;5071784;28;20178;-73
2021/03/10 09:52:18;;;;;;;39.50;23.30;;;;;;;;;;5072625;28;20209;-74
2021/03/10 09:54:49;;;;;;;40.63;23.57;;;;;;;;;;5071524;28;20231;-74
2021/03/10 09:57:25;;;;;;;41.73;24.37;;;;;;;;;;5071508;28;20251;-75
2021/03/10 09:59:51;;;;;;;36.83;23.47;;;;;;;;;;5071498;28;20169;-73
2021/03/10 10:02:17;;;;;;;35.63;23.13;;;;;;;;;;5054655;28;20173;-72
2021/03/10 10:04:44;;;;;;;36.63;22.17;;;;;;;;;;5071836;28;20189;-73
2021/03/10 10:07:12;;;;;;;35.10;22.00;;;;;;;;;;5054557;28;20201;-72
2021/03/10 10:09:38;;;;;;;36.73;22.30;;;;;;;;;;5071350;28;20169;-72
2021/03/10 10:12:05;;;;;;;37.07;22.73;;;;;;;;;;5071583;28;20212;-75
2021/03/10 10:14:32;;;;;;;36.73;23.03;;;;;;;;;;5073197;28;20174;-79
2021/03/10 10:16:58;;;;;;;34.33;21.60;;;;;;;;;;5054575;28;20213;-77
2021/03/10 10:19:24;;;;;;;34.33;21.50;;;;;;;;;;5051557;28;20549;-75
2021/03/10 10:21:51;;;;;;;37.87;22.50;;;;;;;;;;5038298;28;20210;-75
2021/03/10 10:24:17;;;;;;;33.47;20.80;;;;;;;;;;5051011;28;20186;-74
2021/03/10 10:26:43;;;;;;;32.40;21.03;;;;;;;;;;5052033;28;20665;-73
2021/03/10 10:29:09;;;;;;;36.47;22.47;;;;;;;;;;5054633;28;20181;-74
2021/03/10 10:31:35;;;;;;;34.33;22.97;;;;;;;;;;5063720;28;20210;-74
2021/03/10 10:34:02;;;;;;;36.33;22.97;;;;;;;;;;5072013;28;20174;-74
2021/03/10 10:36:28;;;;;;;35.80;20.83;;;;;;;;;;5053980;28;20178;-74
2021/03/10 10:38:53;;;;;;;39.20;23.67;;;;;;;;;;5070791;28;20215;-74
2021/03/10 10:41:19;;;;;;;34.53;22.50;;;;;;;;;;5072108;28;20184;-74
2021/03/10 10:43:45;;;;;;;34.43;22.27;;;;;;;;;;5064156;28;20701;-73
2021/03/10 10:46:11;;;;;;;35.03;22.00;;;;;;;;;;5072942;28;20181;-74
2021/03/10 10:48:37;;;;;;;36.63;22.13;;;;;;;;;;5071616;28;20287;-74
2021/03/10 10:51:03;;;;;;;38.03;23.40;;;;;;;;;;5070696;28;20168;-74
2021/03/10 10:53:29;;;;;;;36.93;23.00;;;;;;;;;;5069996;28;20176;-74
2021/03/10 10:55:55;;;;;;;32.53;20.33;;;;;;;;;;5070137;28;20169;-74
2021/03/10 10:58:21;;;;;;;34.27;22.37;;;;;;;;;;5070410;28;20740;-74
2021/03/10 11:00:47;;;;;;;38.20;23.03;;;;;;;;;;5070605;28;20545;-74
2021/03/10 11:03:13;;;;;;;37.03;24.17;;;;;;;;;;5070503;28;20208;-74
2021/03/10 11:05:39;;;;;;;36.73;22.77;;;;;;;;;;5070542;28;20657;-74
2021/03/10 11:08:05;;;;;;;35.30;22.57;;;;;;;;;;5070486;28;20238;-74
2021/03/10 11:10:31;;;;;;;40.60;22.87;;;;;;;;;;5070241;28;20193;-73
2021/03/10 11:12:57;;;;;;;35.63;22.80;;;;;;;;;;5072610;28;20607;-73
2021/03/10 11:15:23;;;;;;;37.23;22.80;;;;;;;;;;5050177;28;20318;-74
2021/03/10 11:17:49;;;;;;;35.63;22.60;;;;;;;;;;5058028;28;20217;-74
2021/03/10 11:20:15;;;;;;;35.80;23.03;;;;;;;;;;5075803;28;20187;-74
2021/03/10 11:22:41;;;;;;;37.27;23.63;;;;;;;;;;5074539;28;20182;-74
2021/03/10 11:25:08;;;;;;;36.37;23.23;;;;;;;;;;5074642;28;20582;-74
2021/03/10 11:27:34;;;;;;;35.53;22.83;;;;;;;;;;5079821;28;20212;-73
2021/03/10 11:30:00;;;;;;;43.17;27.60;;;;;;;;;;5067561;28;20172;-73
2021/03/10 11:32:26;;;;;;;43.93;26.27;;;;;;;;;;5080481;28;20286;-75
2021/03/10 11:34:52;;;;;;;43.33;26.67;;;;;;;;;;5085005;28;20269;-76
2021/03/10 11:37:19;;;;;;;40.33;25.33;;;;;;;;;;5077072;28;20209;-75
2021/03/10 11:39:45;;;;;;;41.93;26.27;;;;;;;;;;5058448;28;20269;-74
2021/03/10 11:42:11;;;;;;;36.50;24.03;;;;;;;;;;5081402;28;20272;-75
2021/03/10 11:44:37;;;;;;;39.43;24.87;;;;;;;;;;5077663;28;20222;-75
2021/03/10 11:47:03;;;;;;;40.73;25.83;;;;;;;;;;5072400;28;20254;-74
2021/03/10 11:49:29;;;;;;;40.70;24.70;;;;;;;;;;5071566;28;20193;-75
2021/03/10 11:51:55;;;;;;;35.00;22.87;;;;;;;;;;5051878;28;20209;-75
2021/03/10 11:54:22;;;;;;;41.27;25.07;;;;;;;;;;5068454;28;20673;-74
2021/03/10 11:56:48;;;;;;;37.70;23.03;;;;;;;;;;5072335;28;20188;-75
2021/03/10 11:59:14;;;;;;;37.23;23.93;;;;;;;;;;5074577;28;20177;-76
2021/03/10 12:01:40;;;;;;;34.90;22.83;;;;;;;;;;5065765;28;20185;-76
2021/03/10 12:04:06;;;;;;;37.53;23.80;;;;;;;;;;5069893;28;20238;-75
2021/03/10 12:06:32;;;;;;;34.27;23.53;;;;;;;;;;5087649;28;20189;-76
2021/03/10 12:08:58;;;;;;;33.60;21.73;;;;;;;;;;5059620;28;20182;-76
2021/03/10 12:11:24;;;;;;;34.93;22.77;;;;;;;;;;5073410;28;20206;-75
2021/03/10 12:13:50;;;;;;;32.87;20.97;;;;;;;;;;5073452;28;20173;-76
2021/03/10 12:16:16;;;;;;;34.23;23.33;;;;;;;;;;5074276;28;20573;-76
2021/03/10 12:18:42;;;;;;;38.43;24.57;;;;;;;;;;5073089;28;20202;-76
2021/03/10 12:21:08;;;;;;;37.40;23.60;;;;;;;;;;5056666;28;20780;-76
2021/03/10 12:23:34;;;;;;;37.73;23.63;;;;;;;;;;5072796;28;20176;-76
2021/03/10 12:26:00;;;;;;;35.93;23.03;;;;;;;;;;5072954;28;20181;-76
2021/03/10 12:28:26;;;;;;;34.53;22.70;;;;;;;;;;5073640;28;20209;-77
2021/03/10 12:30:52;;;;;;;35.37;23.20;;;;;;;;;;5073133;28;20177;-76
2021/03/10 12:33:18;;;;;;;35.87;23.63;;;;;;;;;;5058934;28;20206;-76
2021/03/10 12:35:44;;;;;;;32.57;22.97;;;;;;;;;;5073575;28;20577;-75
2021/03/10 12:38:10;;;;;;;34.00;22.10;;;;;;;;;;5064163;28;20199;-75
2021/03/10 12:40:36;;;;;;;35.47;22.53;;;;;;;;;;5081082;28;20227;-76
2021/03/10 12:43:02;;;;;;;33.73;22.47;;;;;;;;;;5045043;28;20583;-76
2021/03/10 12:45:28;;;;;;;34.90;22.63;;;;;;;;;;5055760;28;20189;-76
2021/03/10 12:47:54;;;;;;;33.80;22.90;;;;;;;;;;5074408;28;20213;-75
2021/03/10 12:50:20;;;;;;;33.63;20.53;;;;;;;;;;5066850;28;20239;-75
2021/03/10 12:52:46;;;;;;;29.50;21.20;;;;;;;;;;5066693;28;20288;-76
2021/03/10 12:55:12;;;;;;;30.30;19.77;;;;;;;;;;5072862;28;20647;-75
2021/03/10 12:57:38;;;;;;;29.20;19.47;;;;;;;;;;5071685;28;20205;-75
2021/03/10 13:00:04;;;;;;;32.70;18.93;;;;;;;;;;5052424;28;20187;-76
2021/03/10 13:02:30;;;;;;;29.63;19.73;;;;;;;;;;5073614;28;20191;-76
2021/03/10 13:04:56;;;;;;;31.03;21.20;;;;;;;;;;5055698;28;20568;-76
2021/03/10 13:07:22;;;;;;;33.87;21.60;;;;;;;;;;5054891;28;20203;-78
2021/03/10 13:09:48;;;;;;;32.73;20.43;;;;;;;;;;5053466;28;20186;-76
2021/03/10 13:12:14;;;;;;;34.90;21.07;;;;;;;;;;5052606;28;20295;-76
2021/03/10 13:14:40;;;;;;;30.73;19.47;;;;;;;;;;5052634;28;20185;-78
2021/03/10 13:17:06;;;;;;;28.57;19.57;;;;;;;;;;5060221;28;20281;-74
2021/03/10 13:19:32;;;;;;;29.20;19.80;;;;;;;;;;5073255;28;20176;-74
2021/03/10 13:21:58;;;;;;;31.20;20.33;;;;;;;;;;5071829;28;20188;-74
2021/03/10 13:24:24;;;;;;;26.97;19.20;;;;;;;;;;5072059;28;20710;-74
2021/03/10 13:26:50;;;;;;;24.73;17.00;;;;;;;;;;5071837;28;20560;-74
2021/03/10 13:29:16;;;;;;;28.43;17.30;;;;;;;;;;5055406;28;20248;-74
2021/03/10 13:31:42;;;;;;;20.17;13.83;;;;;;;;;;5055358;28;20229;-74
2021/03/10 13:34:08;;;;;;;22.90;13.77;;;;;;;;;;5071779;28;20205;-75
2021/03/10 13:36:34;;;;;;;21.70;13.70;;;;;;;;;;5054423;28;20278;-74
2021/03/10 13:39:00;;;;;;;19.83;14.00;;;;;;;;;;5056122;28;20180;-79
2021/03/10 13:41:26;;;;;;;21.23;13.60;;;;;;;;;;5072594;28;20540;-75
2021/03/10 13:43:52;;;;;;;21.63;13.93;;;;;;;;;;5055085;28;20315;-76
2021/03/10 13:46:18;;;;;;;18.43;13.30;;;;;;;;;;5055060;28;20182;-76
2021/03/10 13:48:45;;;;;;;20.50;13.30;;;;;;;;;;5071871;28;20214;-75
2021/03/10 13:51:11;;;;;;;20.97;13.43;;;;;;;;;;5071469;28;20175;-75
2021/03/10 13:53:37;;;;;;;19.70;12.40;;;;;;;;;;5071661;28;20183;-77
2021/03/10 13:56:03;;;;;;;16.43;11.43;;;;;;;;;;5073011;28;20241;-76
2021/03/10 13:58:29;;;;;;;17.90;11.43;;;10.10;99.90;;;;;;5054623;28;20200;-76
2021/03/10 14:00:54;;;;;;;17.70;11.53;;;10.10;99.90;;;;;;5071184;28;20716;-75